createdAt,value
2019-03-12T00:01:28.495Z,0.10
2019-03-12T00:04:13.738Z,0.10
2019-03-12T00:06:59.843Z,0.20
2019-03-12T00:09:45.555Z,0.20
2019-03-12T00:12:30.473Z,0.20
2019-03-12T00:15:15.385Z,0.20
2019-03-12T00:18:00.773Z,0.40
2019-03-12T00:20:46.553Z,0.50
2019-03-12T00:23:32.948Z,0.50
2019-03-12T00:26:19.833Z,0.60
2019-03-12T00:29:04.872Z,0.60
2019-03-12T00:31:50.313Z,0.60
2019-03-12T00:34:35.428Z,0.60
2019-03-12T00:37:20.770Z,0.60
2019-03-12T00:40:08.323Z,0.60
2019-03-12T00:42:53.979Z,0.40
2019-03-12T00:45:39.906Z,0.60
2019-03-12T00:48:25.274Z,0.60
2019-03-12T00:51:10.395Z,0.60
2019-03-12T00:53:56.395Z,0.60
2019-03-12T00:56:42.996Z,0.60
2019-03-12T00:59:28.410Z,0.60
2019-03-12T01:02:13.438Z,0.60
2019-03-12T01:04:58.281Z,0.60
2019-03-12T01:07:45.508Z,0.60
2019-03-12T01:10:30.305Z,0.60
2019-03-12T01:13:16.999Z,0.60
2019-03-12T01:16:02.238Z,0.60
2019-03-12T01:18:47.715Z,0.50
2019-03-12T01:21:34.098Z,0.50
2019-03-12T01:24:19.514Z,0.50
2019-03-12T01:27:05.078Z,0.40
2019-03-12T01:29:50.694Z,0.40
2019-03-12T01:32:38.204Z,0.40
2019-03-12T01:35:23.326Z,0.40
2019-03-12T01:38:08.800Z,0.40
2019-03-12T01:40:54.218Z,0.30
2019-03-12T01:43:39.388Z,0.30
2019-03-12T01:46:24.772Z,0.30
2019-03-12T01:49:09.936Z,0.20
2019-03-12T01:51:55.400Z,0.30
2019-03-12T01:54:40.626Z,0.30
2019-03-12T01:57:27.513Z,0.20
2019-03-12T02:00:15.730Z,0.10
2019-03-12T02:03:01.498Z,0.10
2019-03-12T02:05:46.782Z,0.40
2019-03-12T02:08:31.799Z,0.20
2019-03-12T02:11:16.842Z,0.20
2019-03-12T02:14:06.219Z,0.20
2019-03-12T02:16:53.325Z,0.10
2019-03-12T02:19:38.070Z,0.10
2019-03-12T02:22:23.215Z,0.10
2019-03-12T02:25:17.022Z,0.10
2019-03-12T02:28:04.352Z,0.10
2019-03-12T02:30:49.603Z,0.00
2019-03-12T02:33:34.980Z,0.00
2019-03-12T02:36:19.804Z,0.00
2019-03-12T02:39:07.252Z,0.00
2019-03-12T02:41:52.053Z,0.00
2019-03-12T02:44:37.377Z,0.00
2019-03-12T02:47:22.512Z,0.00
2019-03-12T02:50:10.347Z,0.00
2019-03-12T02:52:55.447Z,0.00
2019-03-12T02:55:40.982Z,-0.10
2019-03-12T02:58:26.257Z,0.20
2019-03-12T03:01:11.355Z,-0.10
2019-03-12T03:03:56.673Z,-0.20
2019-03-12T03:06:55.363Z,-0.20
2019-03-12T03:09:40.622Z,-0.20
2019-03-12T03:12:26.662Z,0.00
2019-03-12T03:15:15.642Z,-0.30
2019-03-12T03:18:01.122Z,-0.30
2019-03-12T03:20:46.203Z,-0.40
2019-03-12T03:23:31.361Z,-0.40
2019-03-12T03:26:16.455Z,-0.40
2019-03-12T03:29:02.585Z,-0.40
2019-03-12T03:31:47.655Z,-0.40
2019-03-12T03:34:32.698Z,-0.50
2019-03-12T03:37:18.751Z,-0.60
2019-03-12T03:40:05.458Z,-0.50
2019-03-12T03:42:50.619Z,-0.50
2019-03-12T03:45:36.096Z,-0.60
2019-03-12T03:48:21.132Z,-0.60
2019-03-12T03:51:07.729Z,-0.70
2019-03-12T03:53:52.871Z,-0.70
2019-03-12T03:56:38.265Z,-0.70
2019-03-12T03:59:23.478Z,-0.70
2019-03-12T04:02:08.783Z,-0.70
2019-03-12T04:04:53.891Z,-0.70
2019-03-12T04:07:38.735Z,-0.80
2019-03-12T04:10:24.275Z,-0.80
2019-03-12T04:13:08.917Z,-0.80
2019-03-12T04:15:55.084Z,-0.90
2019-03-12T04:18:40.349Z,-0.90
2019-03-12T04:21:25.658Z,-0.90
2019-03-12T04:24:11.373Z,-0.80
2019-03-12T04:26:56.291Z,-0.80
2019-03-12T04:29:41.891Z,-0.80
2019-03-12T04:32:26.873Z,-0.60
2019-03-12T04:35:15.254Z,-0.80
2019-03-12T04:38:00.624Z,-0.90
2019-03-12T04:40:45.632Z,-0.90
2019-03-12T04:43:31.277Z,-0.80
2019-03-12T04:46:16.753Z,-0.90
2019-03-12T04:49:01.771Z,-0.60
2019-03-12T04:51:46.744Z,-0.80
2019-03-12T04:54:32.034Z,-0.80
2019-03-12T04:57:17.414Z,-0.80
2019-03-12T05:00:06.409Z,-0.60
2019-03-12T05:02:51.216Z,-0.80
2019-03-12T05:05:36.141Z,-0.90
2019-03-12T05:08:21.279Z,-0.90
2019-03-12T05:11:06.423Z,-0.90
2019-03-12T05:14:21.727Z,-0.90
2019-03-12T05:17:07.283Z,-0.40
2019-03-12T05:19:52.657Z,-0.90
2019-03-12T05:22:37.748Z,-0.60
2019-03-12T05:25:23.157Z,-0.90
2019-03-12T05:28:08.344Z,-0.90
2019-03-12T05:30:53.576Z,-0.90
2019-03-12T05:33:38.876Z,-0.90
2019-03-12T05:36:23.875Z,-0.90
2019-03-12T05:39:11.367Z,-0.90
2019-03-12T05:41:56.414Z,-0.80
2019-03-12T05:44:41.660Z,-0.70
2019-03-12T05:47:26.781Z,-0.80
2019-03-12T05:50:15.090Z,-0.70
2019-03-12T05:53:14.331Z,-0.60
2019-03-12T05:55:59.233Z,-0.70
2019-03-12T05:58:45.788Z,-0.60
2019-03-12T06:01:30.878Z,-0.60
2019-03-12T06:04:16.146Z,-0.50
2019-03-12T06:07:03.528Z,-0.50
2019-03-12T06:09:48.644Z,-0.40
2019-03-12T06:12:33.937Z,-0.30
2019-03-12T06:15:19.193Z,-0.20
2019-03-12T06:18:04.394Z,-0.20
2019-03-12T06:20:49.683Z,-0.10
2019-03-12T06:23:36.148Z,0.00
2019-03-12T06:26:21.283Z,0.00
2019-03-12T06:29:06.351Z,0.10
2019-03-12T06:31:53.403Z,0.20
2019-03-12T06:34:42.005Z,0.20
2019-03-12T06:37:41.514Z,0.30
2019-03-12T06:40:34.528Z,0.30
2019-03-12T06:43:21.915Z,0.40
2019-03-12T06:46:26.172Z,0.40
2019-03-12T06:49:28.220Z,0.50
2019-03-12T06:52:24.160Z,0.50
2019-03-12T06:55:11.405Z,0.60
2019-03-12T06:58:00.868Z,0.60
2019-03-12T07:00:49.761Z,0.70
2019-03-12T07:03:42.591Z,0.70
2019-03-12T07:06:30.113Z,0.80
2019-03-12T07:09:17.540Z,0.90
2019-03-12T07:12:04.947Z,0.90
2019-03-12T07:14:53.623Z,1.00
2019-03-12T07:17:49.403Z,1.10
2019-03-12T07:20:45.389Z,1.10
2019-03-12T07:23:49.480Z,1.30
2019-03-12T07:26:38.633Z,1.30
2019-03-12T07:29:25.789Z,1.30
2019-03-12T07:32:15.732Z,1.40
2019-03-12T07:35:09.563Z,1.50
2019-03-12T07:37:56.940Z,1.60
2019-03-12T07:40:43.953Z,1.70
2019-03-12T07:43:30.670Z,1.80
2019-03-12T07:46:33.920Z,1.80
2019-03-12T07:49:21.709Z,1.90
2019-03-12T07:52:08.909Z,2.00
2019-03-12T07:54:56.193Z,2.10
2019-03-12T07:57:59.565Z,2.30
2019-03-12T08:00:56.454Z,2.40
2019-03-12T08:04:00.121Z,2.30
2019-03-12T08:06:47.247Z,2.50
2019-03-12T08:09:36.818Z,2.80
2019-03-12T08:12:29.838Z,2.90
2019-03-12T08:15:33.500Z,3.00
2019-03-12T08:18:20.723Z,3.10
2019-03-12T08:21:24.734Z,3.30
2019-03-12T08:24:30.900Z,3.50
2019-03-12T08:27:26.696Z,3.70
2019-03-12T08:30:16.937Z,3.80
2019-03-12T08:33:06.756Z,3.60
2019-03-12T08:36:02.601Z,3.90
2019-03-12T08:38:58.434Z,3.80
2019-03-12T08:42:04.711Z,3.90
2019-03-12T08:45:10.967Z,4.10
2019-03-12T08:47:58.413Z,4.30
2019-03-12T08:50:58.057Z,4.40
2019-03-12T08:53:48.078Z,4.50
2019-03-12T08:56:47.503Z,4.30
2019-03-12T08:59:34.689Z,4.30
2019-03-12T09:02:21.981Z,4.50
2019-03-12T09:05:09.107Z,4.70
2019-03-12T09:08:08.227Z,4.80
2019-03-12T09:11:01.223Z,5.00
2019-03-12T09:13:47.990Z,5.00
2019-03-12T09:16:37.564Z,5.20
2019-03-12T09:19:39.976Z,5.10
2019-03-12T09:22:38.964Z,5.00
2019-03-12T09:25:29.253Z,5.20
2019-03-12T09:28:21.718Z,5.50
2019-03-12T09:31:11.432Z,5.20
2019-03-12T09:33:58.395Z,5.30
2019-03-12T09:37:02.797Z,5.40
2019-03-12T09:40:04.847Z,5.60
2019-03-12T09:42:54.636Z,5.40
2019-03-12T09:45:41.973Z,5.20
2019-03-12T09:48:40.616Z,5.10
2019-03-12T09:51:27.704Z,5.20
2019-03-12T09:54:23.318Z,5.40
2019-03-12T09:57:13.215Z,5.20
2019-03-12T10:00:14.791Z,5.30
2019-03-12T10:02:54.869Z,5.30
2019-03-12T10:05:57.121Z,5.10
2019-03-12T10:09:00.729Z,5.20
2019-03-12T10:11:51.662Z,5.50
2019-03-12T10:14:52.129Z,5.40
2019-03-12T10:17:48.604Z,5.30
2019-03-12T10:20:38.549Z,5.40
2019-03-12T10:23:25.768Z,5.10
2019-03-12T10:26:12.745Z,4.80
2019-03-12T10:29:18.058Z,4.60
2019-03-12T10:32:21.281Z,4.40
2019-03-12T10:35:08.604Z,4.30
2019-03-12T10:37:59.706Z,4.30
2019-03-12T10:40:47.004Z,4.10
2019-03-12T10:43:34.225Z,4.10
2019-03-12T10:46:21.034Z,4.70
2019-03-12T10:49:06.257Z,5.30
2019-03-12T10:51:51.333Z,5.70
2019-03-12T10:54:36.811Z,6.10
2019-03-12T10:57:21.872Z,6.00
2019-03-12T11:00:15.729Z,5.90
2019-03-12T11:03:02.800Z,5.60
2019-03-12T11:05:47.987Z,5.60
2019-03-12T11:08:33.326Z,6.00
2019-03-12T11:11:18.572Z,6.30
2019-03-12T11:14:03.941Z,6.60
2019-03-12T11:16:49.118Z,6.50
2019-03-12T11:19:34.614Z,6.20
2019-03-12T11:22:19.794Z,6.00
2019-03-12T11:25:06.329Z,5.90
2019-03-12T11:27:51.550Z,6.20
2019-03-12T11:30:37.049Z,6.30
2019-03-12T11:33:23.152Z,6.60
2019-03-12T11:36:08.555Z,6.70
2019-03-12T11:38:55.068Z,6.40
2019-03-12T11:41:40.435Z,6.10
2019-03-12T11:44:25.305Z,6.30
2019-03-12T11:47:10.424Z,6.30
2019-03-12T11:49:55.971Z,6.00
2019-03-12T11:52:40.959Z,6.10
2019-03-12T11:55:26.484Z,6.20
2019-03-12T11:58:13.461Z,6.10
2019-03-12T12:01:02.692Z,6.20
2019-03-12T12:03:47.916Z,6.30
2019-03-12T12:06:34.365Z,6.40
2019-03-12T12:09:19.611Z,6.60
2019-03-12T12:12:05.310Z,6.50
2019-03-12T12:14:51.102Z,7.20
2019-03-12T12:17:36.295Z,8.40
2019-03-12T12:20:29.483Z,8.80
2019-03-12T12:23:09.025Z,8.40
2019-03-12T12:25:54.467Z,7.80
2019-03-12T12:28:39.826Z,7.30
2019-03-12T12:31:25.186Z,7.30
2019-03-12T12:34:10.296Z,7.40
2019-03-12T12:36:56.377Z,8.10
2019-03-12T12:39:41.159Z,8.60
2019-03-12T12:42:26.404Z,8.10
2019-03-12T12:45:32.244Z,7.70
2019-03-12T12:48:17.589Z,7.70
2019-03-12T12:51:03.894Z,7.40
2019-03-12T12:53:49.130Z,7.20
2019-03-12T12:56:35.416Z,7.00
2019-03-12T12:59:22.584Z,7.00
2019-03-12T13:02:09.944Z,7.10
2019-03-12T13:04:54.928Z,7.10
2019-03-12T13:07:41.312Z,7.30
2019-03-12T13:10:27.886Z,7.40
2019-03-12T13:13:12.724Z,7.30
2019-03-12T13:15:58.385Z,7.20
2019-03-12T13:18:43.111Z,7.20
2019-03-12T13:21:28.537Z,7.40
2019-03-12T13:24:14.127Z,7.60
2019-03-12T13:26:59.149Z,7.40
2019-03-12T13:29:44.616Z,7.70
2019-03-12T13:32:30.836Z,7.80
2019-03-12T13:35:17.296Z,7.80
2019-03-12T13:38:02.656Z,8.10
2019-03-12T13:40:47.901Z,7.60
2019-03-12T13:43:32.921Z,7.60
2019-03-12T13:46:18.575Z,7.70
2019-03-12T13:49:04.151Z,7.70
2019-03-12T13:51:49.571Z,7.70
2019-03-12T13:54:34.800Z,7.50
2019-03-12T13:57:20.304Z,7.40
2019-03-12T14:00:09.352Z,7.10
2019-03-12T14:02:54.465Z,7.00
2019-03-12T14:05:39.724Z,7.10
2019-03-12T14:08:25.576Z,7.20
2019-03-12T14:11:10.851Z,7.00
2019-03-12T14:13:55.773Z,6.80
2019-03-12T14:16:41.494Z,6.60
2019-03-12T14:19:27.287Z,6.40
2019-03-12T14:22:13.054Z,6.40
2019-03-12T14:24:59.953Z,6.60
2019-03-12T14:27:46.623Z,6.50
2019-03-12T14:30:32.004Z,6.40
2019-03-12T14:33:17.130Z,6.50
2019-03-12T14:36:02.252Z,6.40
2019-03-12T14:38:48.263Z,6.40
2019-03-12T14:41:34.308Z,6.40
2019-03-12T14:44:20.645Z,6.40
2019-03-12T14:47:06.346Z,6.40
2019-03-12T14:49:51.938Z,6.40
2019-03-12T14:52:37.975Z,6.60
2019-03-12T14:55:24.009Z,6.80
2019-03-12T14:58:11.097Z,6.80
2019-03-12T15:00:56.345Z,6.70
2019-03-12T15:03:41.861Z,6.50
2019-03-12T15:06:26.946Z,6.50
2019-03-12T15:09:13.719Z,6.60
2019-03-12T15:11:58.629Z,6.40
2019-03-12T15:14:45.907Z,6.30
2019-03-12T15:17:31.540Z,6.20
2019-03-12T15:20:16.774Z,6.20
2019-03-12T15:23:01.909Z,6.20
2019-03-12T15:25:47.332Z,6.40
2019-03-12T15:28:32.361Z,6.50
2019-03-12T15:31:18.142Z,6.50
2019-03-12T15:34:03.342Z,6.60
2019-03-12T15:36:50.103Z,6.60
2019-03-12T15:39:34.868Z,6.50
2019-03-12T15:42:20.078Z,6.30
2019-03-12T15:45:13.925Z,6.30
2019-03-12T15:47:59.126Z,6.20
2019-03-12T15:50:45.428Z,6.40
2019-03-12T15:53:30.596Z,6.50
2019-03-12T15:56:16.412Z,6.40
2019-03-12T15:59:01.801Z,6.40
2019-03-12T16:01:47.312Z,6.30
2019-03-12T16:04:32.725Z,6.10
2019-03-12T16:07:17.857Z,6.10
2019-03-12T16:10:14.756Z,6.10
2019-03-12T16:13:00.206Z,6.10
2019-03-12T16:15:45.563Z,6.00
2019-03-12T16:18:30.343Z,6.00
2019-03-12T16:21:15.468Z,6.00
2019-03-12T16:24:00.989Z,5.90
2019-03-12T16:26:46.454Z,5.90
2019-03-12T16:29:31.495Z,5.80
2019-03-12T16:32:16.436Z,5.80
2019-03-12T16:35:01.796Z,5.70
2019-03-12T16:37:47.244Z,5.70
2019-03-12T16:40:32.395Z,5.40
2019-03-12T16:43:17.407Z,5.70
2019-03-12T16:46:02.971Z,5.70
2019-03-12T16:48:48.178Z,5.70
2019-03-12T16:51:33.268Z,5.70
2019-03-12T16:54:19.151Z,5.70
2019-03-12T16:57:04.329Z,5.70
2019-03-12T16:59:49.176Z,5.70
2019-03-12T17:02:34.369Z,5.60
2019-03-12T17:05:19.564Z,5.60
2019-03-12T17:08:04.677Z,5.50
2019-03-12T17:10:56.843Z,5.50
2019-03-12T17:13:36.552Z,5.50
2019-03-12T17:16:21.672Z,5.40
2019-03-12T17:19:07.296Z,5.40
2019-03-12T17:21:52.394Z,5.30
2019-03-12T17:24:37.522Z,5.20
2019-03-12T17:27:22.918Z,5.20
2019-03-12T17:30:14.637Z,5.20
2019-03-12T17:32:59.778Z,5.10
2019-03-12T17:35:45.125Z,5.10
2019-03-12T17:38:45.562Z,5.00
2019-03-12T17:41:17.454Z,5.00
2019-03-12T17:44:03.115Z,4.90
2019-03-12T17:47:18.696Z,4.90
2019-03-12T17:49:36.777Z,4.80
2019-03-12T17:52:21.849Z,4.70
2019-03-12T17:55:12.847Z,4.70
2019-03-12T17:57:58.195Z,4.70
2019-03-12T18:00:44.862Z,4.70
2019-03-12T18:03:30.139Z,4.70
2019-03-12T18:06:15.343Z,4.60
2019-03-12T18:09:00.991Z,4.60
2019-03-12T18:11:47.217Z,4.60
2019-03-12T18:14:32.263Z,4.60
2019-03-12T18:17:17.677Z,4.60
2019-03-12T18:20:08.648Z,4.60
2019-03-12T18:22:54.994Z,4.60
2019-03-12T18:25:43.427Z,4.60
2019-03-12T18:28:28.623Z,4.60
2019-03-12T18:31:14.153Z,4.60
2019-03-12T18:34:00.165Z,4.50
2019-03-12T18:36:45.037Z,4.50
2019-03-12T18:39:30.085Z,4.50
2019-03-12T18:42:15.169Z,4.50
2019-03-12T18:45:00.385Z,4.40
2019-03-12T18:47:45.344Z,4.50
2019-03-12T18:50:31.323Z,4.50
2019-03-12T18:53:16.636Z,4.40
2019-03-12T18:56:03.162Z,4.50
2019-03-12T18:58:48.242Z,4.40
2019-03-12T19:01:33.268Z,4.40
2019-03-12T19:04:18.425Z,4.40
2019-03-12T19:07:03.622Z,4.40
2019-03-12T19:09:49.418Z,4.40
2019-03-12T19:12:34.816Z,4.40
2019-03-12T19:15:20.074Z,4.30
2019-03-12T19:18:05.078Z,4.30
2019-03-12T19:20:50.198Z,4.30
2019-03-12T19:23:35.378Z,4.20
2019-03-12T19:26:20.460Z,4.20
2019-03-12T19:29:05.515Z,4.20
2019-03-12T19:31:52.169Z,4.10
2019-03-12T19:34:37.399Z,4.10
2019-03-12T19:37:22.502Z,4.10
2019-03-12T19:40:14.292Z,4.10
2019-03-12T19:42:59.407Z,4.00
2019-03-12T19:45:44.386Z,4.00
2019-03-12T19:48:29.687Z,3.90
2019-03-12T19:51:14.810Z,3.90
2019-03-12T19:53:59.981Z,3.90
2019-03-12T19:56:45.277Z,3.90
2019-03-12T19:59:30.481Z,3.80
2019-03-12T20:02:16.684Z,3.80
2019-03-12T20:05:02.330Z,3.80
2019-03-12T20:07:47.494Z,3.80
2019-03-12T20:10:42.033Z,3.80
2019-03-12T20:13:43.059Z,3.80
2019-03-12T20:17:08.097Z,3.80
2019-03-12T20:20:18.094Z,3.80
2019-03-12T20:23:26.981Z,3.80
2019-03-12T20:26:25.088Z,3.80
2019-03-12T20:29:20.006Z,3.80
2019-03-12T20:32:23.575Z,3.80
2019-03-12T20:35:46.664Z,3.80
2019-03-12T20:39:01.392Z,3.80
2019-03-12T20:42:07.118Z,3.80
2019-03-12T20:45:14.062Z,3.80
2019-03-12T20:48:09.407Z,3.80
2019-03-12T20:51:32.042Z,3.80
2019-03-12T20:54:40.709Z,3.80
2019-03-12T20:57:47.214Z,3.80
2019-03-12T21:00:41.928Z,3.70
2019-03-12T21:03:41.904Z,3.70
2019-03-12T21:06:47.203Z,3.60
2019-03-12T21:10:00.892Z,3.70
2019-03-12T21:13:01.616Z,3.60
2019-03-12T21:15:54.903Z,3.60
2019-03-12T21:18:49.780Z,3.60
2019-03-12T21:22:02.671Z,3.60
2019-03-12T21:24:46.836Z,3.60
2019-03-12T21:27:50.997Z,3.60
2019-03-12T21:30:36.400Z,3.60
2019-03-12T21:33:21.554Z,3.60
2019-03-12T21:36:08.253Z,3.50
2019-03-12T21:38:53.775Z,3.50
2019-03-12T21:41:38.895Z,3.50
2019-03-12T21:44:24.027Z,3.50
2019-03-12T21:47:09.569Z,3.50
2019-03-12T21:49:54.649Z,3.50
2019-03-12T21:52:40.764Z,3.40
2019-03-12T21:55:26.032Z,3.40
2019-03-12T21:58:10.887Z,3.40
2019-03-12T22:00:56.083Z,3.40
2019-03-12T22:03:41.054Z,3.40
2019-03-12T22:06:26.543Z,3.40
2019-03-12T22:11:47.159Z,3.30
2019-03-12T22:14:32.389Z,3.30
2019-03-12T22:17:17.669Z,3.30
2019-03-12T22:20:06.353Z,3.30
2019-03-12T22:22:53.015Z,3.30
2019-03-12T22:25:38.670Z,3.30
2019-03-12T22:28:24.307Z,3.30
2019-03-12T22:31:09.229Z,3.30
2019-03-12T22:33:54.392Z,3.30
2019-03-12T22:36:40.129Z,3.30
2019-03-12T22:39:25.487Z,3.30
2019-03-12T22:42:10.313Z,3.30
2019-03-12T22:44:55.635Z,3.30
2019-03-12T22:47:41.535Z,3.30
2019-03-12T22:50:26.840Z,3.30
2019-03-12T22:53:13.106Z,3.30
2019-03-12T22:55:58.399Z,3.30
2019-03-12T22:58:45.490Z,3.30
2019-03-12T23:01:32.432Z,3.30
2019-03-12T23:04:17.834Z,3.30
2019-03-12T23:07:03.215Z,3.30
2019-03-12T23:09:50.244Z,3.30
2019-03-12T23:12:35.624Z,3.30
2019-03-12T23:15:21.412Z,3.40
2019-03-12T23:18:06.385Z,3.40
2019-03-12T23:20:52.176Z,3.40
2019-03-12T23:23:37.158Z,3.40
2019-03-12T23:26:22.551Z,3.40
2019-03-12T23:29:08.333Z,3.40
2019-03-12T23:31:54.125Z,3.40
2019-03-12T23:34:39.507Z,3.40
2019-03-12T23:37:25.297Z,3.50
2019-03-12T23:40:18.613Z,3.50
2019-03-12T23:43:03.920Z,3.50
2019-03-12T23:45:49.382Z,3.50
2019-03-12T23:48:36.438Z,3.50
2019-03-12T23:51:22.724Z,3.50
2019-03-12T23:54:08.806Z,3.50
2019-03-12T23:56:54.193Z,3.50
2019-03-12T23:59:39.578Z,3.50
